sensor_id;sensor_type;location;lat;lon;timestamp;P1;durP1;ratioP1;P2;durP2;ratioP2
61085;SDS011;46967;48.876;2.136;2023-06-14T00:00:30;8.85;;;6.00;;
61085;SDS011;46967;48.876;2.136;2023-06-14T00:02:56;9.20;;;6.05;;
61085;SDS011;46967;48.876;2.136;2023-06-14T00:05:22;9.65;;;5.20;;
61085;SDS011;46967;48.876;2.136;2023-06-14T00:07:48;7.93;;;5.50;;
61085;SDS011;46967;48.876;2.136;2023-06-14T00:10:14;10.18;;;5.95;;
61085;SDS011;46967;48.876;2.136;2023-06-14T00:12:40;9.60;;;5.63;;
61085;SDS011;46967;48.876;2.136;2023-06-14T00:15:06;10.80;;;5.60;;
61085;SDS011;46967;48.876;2.136;2023-06-14T00:17:32;10.18;;;5.75;;
61085;SDS011;46967;48.876;2.136;2023-06-14T00:19:57;10.77;;;5.68;;
61085;SDS011;46967;48.876;2.136;2023-06-14T00:22:24;7.57;;;5.72;;
61085;SDS011;46967;48.876;2.136;2023-06-14T00:24:50;9.23;;;6.05;;
61085;SDS011;46967;48.876;2.136;2023-06-14T00:27:16;8.38;;;5.35;;
61085;SDS011;46967;48.876;2.136;2023-06-14T00:29:41;12.18;;;5.65;;
61085;SDS011;46967;48.876;2.136;2023-06-14T00:32:07;13.98;;;5.70;;
61085;SDS011;46967;48.876;2.136;2023-06-14T00:34:32;8.43;;;5.35;;
61085;SDS011;46967;48.876;2.136;2023-06-14T00:36:58;6.60;;;5.50;;
61085;SDS011;46967;48.876;2.136;2023-06-14T00:39:24;9.05;;;5.57;;
61085;SDS011;46967;48.876;2.136;2023-06-14T00:41:49;9.38;;;5.47;;
61085;SDS011;46967;48.876;2.136;2023-06-14T00:44:15;11.25;;;5.20;;
61085;SDS011;46967;48.876;2.136;2023-06-14T00:46:41;8.45;;;5.43;;
61085;SDS011;46967;48.876;2.136;2023-06-14T00:49:07;8.15;;;5.55;;
61085;SDS011;46967;48.876;2.136;2023-06-14T00:51:33;10.70;;;5.35;;
61085;SDS011;46967;48.876;2.136;2023-06-14T00:53:59;7.10;;;5.78;;
61085;SDS011;46967;48.876;2.136;2023-06-14T00:56:24;9.82;;;5.80;;
61085;SDS011;46967;48.876;2.136;2023-06-14T00:58:50;8.95;;;5.55;;
61085;SDS011;46967;48.876;2.136;2023-06-14T01:01:16;8.30;;;5.90;;
61085;SDS011;46967;48.876;2.136;2023-06-14T01:03:42;7.45;;;6.00;;
61085;SDS011;46967;48.876;2.136;2023-06-14T01:06:16;7.65;;;5.43;;
61085;SDS011;46967;48.876;2.136;2023-06-14T01:12:01;9.38;;;5.53;;
61085;SDS011;46967;48.876;2.136;2023-06-14T01:14:38;8.70;;;5.95;;
61085;SDS011;46967;48.876;2.136;2023-06-14T01:17:04;8.68;;;6.05;;
61085;SDS011;46967;48.876;2.136;2023-06-14T01:19:32;7.55;;;5.47;;
61085;SDS011;46967;48.876;2.136;2023-06-14T01:22:00;8.50;;;5.45;;
61085;SDS011;46967;48.876;2.136;2023-06-14T01:24:26;7.00;;;5.55;;
61085;SDS011;46967;48.876;2.136;2023-06-14T01:26:57;9.88;;;6.00;;
61085;SDS011;46967;48.876;2.136;2023-06-14T01:29:24;11.77;;;5.50;;
61085;SDS011;46967;48.876;2.136;2023-06-14T01:31:53;10.38;;;5.88;;
61085;SDS011;46967;48.876;2.136;2023-06-14T01:34:18;11.13;;;5.68;;
61085;SDS011;46967;48.876;2.136;2023-06-14T01:36:44;7.78;;;5.82;;
61085;SDS011;46967;48.876;2.136;2023-06-14T01:39:14;8.88;;;5.70;;
61085;SDS011;46967;48.876;2.136;2023-06-14T01:41:41;8.38;;;5.82;;
61085;SDS011;46967;48.876;2.136;2023-06-14T01:44:09;12.93;;;6.07;;
61085;SDS011;46967;48.876;2.136;2023-06-14T01:46:35;9.98;;;6.10;;
61085;SDS011;46967;48.876;2.136;2023-06-14T01:49:01;7.80;;;5.20;;
61085;SDS011;46967;48.876;2.136;2023-06-14T01:51:27;10.77;;;6.03;;
61085;SDS011;46967;48.876;2.136;2023-06-14T01:53:52;8.10;;;5.93;;
61085;SDS011;46967;48.876;2.136;2023-06-14T01:56:18;7.85;;;5.57;;
61085;SDS011;46967;48.876;2.136;2023-06-14T01:58:43;9.88;;;6.32;;
61085;SDS011;46967;48.876;2.136;2023-06-14T02:01:08;8.90;;;5.80;;
61085;SDS011;46967;48.876;2.136;2023-06-14T02:03:34;11.88;;;5.93;;
61085;SDS011;46967;48.876;2.136;2023-06-14T02:05:59;8.32;;;5.85;;
61085;SDS011;46967;48.876;2.136;2023-06-14T02:08:25;9.32;;;5.78;;
61085;SDS011;46967;48.876;2.136;2023-06-14T02:10:51;8.50;;;5.95;;
61085;SDS011;46967;48.876;2.136;2023-06-14T02:13:16;7.03;;;5.85;;
61085;SDS011;46967;48.876;2.136;2023-06-14T02:15:42;7.32;;;5.70;;
61085;SDS011;46967;48.876;2.136;2023-06-14T02:18:09;7.63;;;6.38;;
61085;SDS011;46967;48.876;2.136;2023-06-14T02:20:35;9.10;;;5.90;;
61085;SDS011;46967;48.876;2.136;2023-06-14T02:23:00;7.18;;;5.35;;
61085;SDS011;46967;48.876;2.136;2023-06-14T02:25:26;8.55;;;6.20;;
61085;SDS011;46967;48.876;2.136;2023-06-14T02:27:53;8.15;;;5.68;;
61085;SDS011;46967;48.876;2.136;2023-06-14T02:30:20;7.80;;;5.63;;
61085;SDS011;46967;48.876;2.136;2023-06-14T02:32:45;8.85;;;5.82;;
61085;SDS011;46967;48.876;2.136;2023-06-14T02:35:11;6.90;;;5.20;;
61085;SDS011;46967;48.876;2.136;2023-06-14T02:37:38;9.45;;;6.20;;
61085;SDS011;46967;48.876;2.136;2023-06-14T02:40:04;7.07;;;5.82;;
61085;SDS011;46967;48.876;2.136;2023-06-14T02:42:32;9.13;;;6.10;;
61085;SDS011;46967;48.876;2.136;2023-06-14T02:44:57;7.95;;;6.22;;
61085;SDS011;46967;48.876;2.136;2023-06-14T02:47:23;7.95;;;5.70;;
61085;SDS011;46967;48.876;2.136;2023-06-14T02:49:49;8.95;;;6.00;;
61085;SDS011;46967;48.876;2.136;2023-06-14T02:52:15;7.50;;;5.95;;
61085;SDS011;46967;48.876;2.136;2023-06-14T02:54:40;8.10;;;6.22;;
61085;SDS011;46967;48.876;2.136;2023-06-14T02:57:06;7.60;;;5.72;;
61085;SDS011;46967;48.876;2.136;2023-06-14T02:59:35;8.85;;;6.03;;
61085;SDS011;46967;48.876;2.136;2023-06-14T03:02:00;9.63;;;6.70;;
61085;SDS011;46967;48.876;2.136;2023-06-14T03:04:26;8.63;;;6.15;;
61085;SDS011;46967;48.876;2.136;2023-06-14T03:06:52;9.63;;;5.97;;
61085;SDS011;46967;48.876;2.136;2023-06-14T03:09:18;8.80;;;6.15;;
61085;SDS011;46967;48.876;2.136;2023-06-14T03:11:44;7.15;;;5.97;;
61085;SDS011;46967;48.876;2.136;2023-06-14T03:14:10;8.90;;;5.95;;
61085;SDS011;46967;48.876;2.136;2023-06-14T03:16:36;8.55;;;6.10;;
61085;SDS011;46967;48.876;2.136;2023-06-14T03:19:02;8.80;;;6.18;;
61085;SDS011;46967;48.876;2.136;2023-06-14T03:21:27;8.93;;;6.30;;
61085;SDS011;46967;48.876;2.136;2023-06-14T03:23:53;8.13;;;6.25;;
61085;SDS011;46967;48.876;2.136;2023-06-14T03:26:19;8.60;;;6.18;;
61085;SDS011;46967;48.876;2.136;2023-06-14T03:28:45;7.72;;;6.25;;
61085;SDS011;46967;48.876;2.136;2023-06-14T03:31:11;8.65;;;6.15;;
61085;SDS011;46967;48.876;2.136;2023-06-14T03:33:36;11.70;;;6.50;;
61085;SDS011;46967;48.876;2.136;2023-06-14T03:36:02;10.10;;;6.30;;
61085;SDS011;46967;48.876;2.136;2023-06-14T03:38:28;7.97;;;5.85;;
61085;SDS011;46967;48.876;2.136;2023-06-14T03:40:53;8.48;;;6.57;;
61085;SDS011;46967;48.876;2.136;2023-06-14T03:43:18;10.85;;;6.22;;
61085;SDS011;46967;48.876;2.136;2023-06-14T03:45:44;10.43;;;6.20;;
61085;SDS011;46967;48.876;2.136;2023-06-14T03:48:09;9.82;;;6.15;;
61085;SDS011;46967;48.876;2.136;2023-06-14T03:50:35;7.97;;;5.97;;
61085;SDS011;46967;48.876;2.136;2023-06-14T03:53:03;7.57;;;6.03;;
61085;SDS011;46967;48.876;2.136;2023-06-14T03:55:31;12.90;;;6.37;;
61085;SDS011;46967;48.876;2.136;2023-06-14T03:57:58;11.18;;;6.90;;
61085;SDS011;46967;48.876;2.136;2023-06-14T04:00:23;9.15;;;5.93;;
61085;SDS011;46967;48.876;2.136;2023-06-14T04:02:48;8.70;;;5.72;;
61085;SDS011;46967;48.876;2.136;2023-06-14T04:05:14;7.10;;;5.90;;
61085;SDS011;46967;48.876;2.136;2023-06-14T04:07:41;10.25;;;5.90;;
61085;SDS011;46967;48.876;2.136;2023-06-14T04:10:10;8.88;;;6.32;;
61085;SDS011;46967;48.876;2.136;2023-06-14T04:12:36;8.65;;;6.55;;
61085;SDS011;46967;48.876;2.136;2023-06-14T04:15:01;7.47;;;6.20;;
61085;SDS011;46967;48.876;2.136;2023-06-14T04:17:27;9.73;;;5.90;;
61085;SDS011;46967;48.876;2.136;2023-06-14T04:19:53;10.40;;;6.40;;
61085;SDS011;46967;48.876;2.136;2023-06-14T04:22:18;7.18;;;5.68;;
61085;SDS011;46967;48.876;2.136;2023-06-14T04:24:43;9.80;;;6.00;;
61085;SDS011;46967;48.876;2.136;2023-06-14T04:27:09;7.57;;;5.93;;
61085;SDS011;46967;48.876;2.136;2023-06-14T04:29:34;8.98;;;5.53;;
61085;SDS011;46967;48.876;2.136;2023-06-14T04:32:00;10.63;;;6.05;;
61085;SDS011;46967;48.876;2.136;2023-06-14T04:34:26;7.75;;;5.80;;
61085;SDS011;46967;48.876;2.136;2023-06-14T04:36:54;9.63;;;5.93;;
61085;SDS011;46967;48.876;2.136;2023-06-14T04:39:20;7.88;;;5.63;;
61085;SDS011;46967;48.876;2.136;2023-06-14T04:41:46;9.73;;;6.50;;
61085;SDS011;46967;48.876;2.136;2023-06-14T04:44:12;11.20;;;6.40;;
61085;SDS011;46967;48.876;2.136;2023-06-14T04:46:38;11.68;;;6.13;;
61085;SDS011;46967;48.876;2.136;2023-06-14T04:49:09;8.75;;;5.75;;
61085;SDS011;46967;48.876;2.136;2023-06-14T04:51:34;8.50;;;5.93;;
61085;SDS011;46967;48.876;2.136;2023-06-14T04:53:59;11.32;;;6.38;;
61085;SDS011;46967;48.876;2.136;2023-06-14T04:56:26;7.63;;;6.07;;
61085;SDS011;46967;48.876;2.136;2023-06-14T04:58:51;10.95;;;5.95;;
61085;SDS011;46967;48.876;2.136;2023-06-14T05:01:18;10.75;;;6.15;;
61085;SDS011;46967;48.876;2.136;2023-06-14T05:03:44;7.75;;;5.90;;
61085;SDS011;46967;48.876;2.136;2023-06-14T05:06:10;7.55;;;5.63;;
61085;SDS011;46967;48.876;2.136;2023-06-14T05:08:37;11.18;;;6.20;;
61085;SDS011;46967;48.876;2.136;2023-06-14T05:11:02;8.82;;;6.05;;
61085;SDS011;46967;48.876;2.136;2023-06-14T05:13:27;9.18;;;6.32;;
61085;SDS011;46967;48.876;2.136;2023-06-14T05:15:53;8.73;;;6.13;;
61085;SDS011;46967;48.876;2.136;2023-06-14T05:18:18;8.57;;;6.15;;
61085;SDS011;46967;48.876;2.136;2023-06-14T05:20:44;12.90;;;6.82;;
61085;SDS011;46967;48.876;2.136;2023-06-14T05:23:11;8.65;;;6.28;;
61085;SDS011;46967;48.876;2.136;2023-06-14T05:25:40;9.88;;;6.35;;
61085;SDS011;46967;48.876;2.136;2023-06-14T05:28:07;15.25;;;6.40;;
61085;SDS011;46967;48.876;2.136;2023-06-14T05:30:32;11.25;;;6.10;;
61085;SDS011;46967;48.876;2.136;2023-06-14T05:32:58;10.00;;;6.10;;
61085;SDS011;46967;48.876;2.136;2023-06-14T05:35:23;9.43;;;6.07;;
61085;SDS011;46967;48.876;2.136;2023-06-14T05:37:51;10.02;;;5.40;;
61085;SDS011;46967;48.876;2.136;2023-06-14T05:40:17;6.90;;;5.30;;
61085;SDS011;46967;48.876;2.136;2023-06-14T05:42:42;8.32;;;5.57;;
61085;SDS011;46967;48.876;2.136;2023-06-14T05:45:08;9.00;;;5.40;;
61085;SDS011;46967;48.876;2.136;2023-06-14T05:47:33;9.82;;;5.13;;
61085;SDS011;46967;48.876;2.136;2023-06-14T05:49:58;7.07;;;5.07;;
61085;SDS011;46967;48.876;2.136;2023-06-14T05:52:24;6.93;;;5.60;;
61085;SDS011;46967;48.876;2.136;2023-06-14T05:54:50;11.45;;;5.60;;
61085;SDS011;46967;48.876;2.136;2023-06-14T05:57:15;8.55;;;5.60;;
61085;SDS011;46967;48.876;2.136;2023-06-14T05:59:41;8.23;;;5.38;;
61085;SDS011;46967;48.876;2.136;2023-06-14T06:02:06;7.68;;;5.68;;
61085;SDS011;46967;48.876;2.136;2023-06-14T06:04:31;8.45;;;5.43;;
61085;SDS011;46967;48.876;2.136;2023-06-14T06:06:57;11.98;;;5.72;;
61085;SDS011;46967;48.876;2.136;2023-06-14T06:09:22;11.00;;;6.00;;
61085;SDS011;46967;48.876;2.136;2023-06-14T06:11:48;8.10;;;5.18;;
61085;SDS011;46967;48.876;2.136;2023-06-14T06:14:13;6.68;;;5.28;;
61085;SDS011;46967;48.876;2.136;2023-06-14T06:16:38;10.95;;;4.97;;
61085;SDS011;46967;48.876;2.136;2023-06-14T06:19:04;7.55;;;5.32;;
61085;SDS011;46967;48.876;2.136;2023-06-14T06:21:29;9.70;;;5.45;;
61085;SDS011;46967;48.876;2.136;2023-06-14T06:23:54;9.25;;;5.63;;
61085;SDS011;46967;48.876;2.136;2023-06-14T06:26:21;10.27;;;5.40;;
61085;SDS011;46967;48.876;2.136;2023-06-14T06:28:47;7.70;;;5.20;;
61085;SDS011;46967;48.876;2.136;2023-06-14T06:31:13;8.43;;;5.82;;
61085;SDS011;46967;48.876;2.136;2023-06-14T06:33:38;9.90;;;5.60;;
61085;SDS011;46967;48.876;2.136;2023-06-14T06:36:04;7.60;;;5.18;;
61085;SDS011;46967;48.876;2.136;2023-06-14T06:38:30;9.82;;;5.25;;
61085;SDS011;46967;48.876;2.136;2023-06-14T06:40:55;9.40;;;5.22;;
61085;SDS011;46967;48.876;2.136;2023-06-14T06:43:21;11.15;;;5.10;;
61085;SDS011;46967;48.876;2.136;2023-06-14T06:45:47;12.65;;;5.43;;
61085;SDS011;46967;48.876;2.136;2023-06-14T06:48:12;10.98;;;5.75;;
61085;SDS011;46967;48.876;2.136;2023-06-14T06:50:37;9.25;;;6.00;;
61085;SDS011;46967;48.876;2.136;2023-06-14T06:53:03;15.73;;;5.93;;
61085;SDS011;46967;48.876;2.136;2023-06-14T06:55:28;9.88;;;5.68;;
61085;SDS011;46967;48.876;2.136;2023-06-14T06:57:55;9.32;;;6.07;;
61085;SDS011;46967;48.876;2.136;2023-06-14T07:00:20;12.60;;;5.28;;
61085;SDS011;46967;48.876;2.136;2023-06-14T07:02:46;11.30;;;6.07;;
61085;SDS011;46967;48.876;2.136;2023-06-14T07:05:11;8.82;;;5.82;;
61085;SDS011;46967;48.876;2.136;2023-06-14T07:07:37;10.43;;;5.20;;
61085;SDS011;46967;48.876;2.136;2023-06-14T07:10:03;8.20;;;5.70;;
61085;SDS011;46967;48.876;2.136;2023-06-14T07:12:30;13.02;;;6.70;;
61085;SDS011;46967;48.876;2.136;2023-06-14T07:14:59;12.18;;;5.82;;
61085;SDS011;46967;48.876;2.136;2023-06-14T07:17:25;7.70;;;5.30;;
61085;SDS011;46967;48.876;2.136;2023-06-14T07:19:51;10.98;;;6.10;;
61085;SDS011;46967;48.876;2.136;2023-06-14T07:22:16;12.63;;;6.05;;
61085;SDS011;46967;48.876;2.136;2023-06-14T07:24:42;11.20;;;5.68;;
61085;SDS011;46967;48.876;2.136;2023-06-14T07:27:08;11.88;;;5.10;;
61085;SDS011;46967;48.876;2.136;2023-06-14T07:29:33;11.68;;;6.10;;
61085;SDS011;46967;48.876;2.136;2023-06-14T07:31:59;10.23;;;5.53;;
61085;SDS011;46967;48.876;2.136;2023-06-14T07:34:24;16.73;;;5.65;;
61085;SDS011;46967;48.876;2.136;2023-06-14T07:36:49;12.18;;;6.15;;
61085;SDS011;46967;48.876;2.136;2023-06-14T07:39:16;12.38;;;5.93;;
61085;SDS011;46967;48.876;2.136;2023-06-14T07:41:41;10.43;;;5.65;;
61085;SDS011;46967;48.876;2.136;2023-06-14T07:44:07;11.38;;;5.32;;
61085;SDS011;46967;48.876;2.136;2023-06-14T07:46:32;17.00;;;5.88;;
61085;SDS011;46967;48.876;2.136;2023-06-14T07:48:59;12.13;;;5.10;;
61085;SDS011;46967;48.876;2.136;2023-06-14T07:51:25;10.50;;;5.82;;
61085;SDS011;46967;48.876;2.136;2023-06-14T07:53:50;9.55;;;5.30;;
61085;SDS011;46967;48.876;2.136;2023-06-14T07:56:15;13.55;;;5.88;;
61085;SDS011;46967;48.876;2.136;2023-06-14T07:58:41;11.35;;;5.97;;
61085;SDS011;46967;48.876;2.136;2023-06-14T08:01:06;18.70;;;6.65;;
61085;SDS011;46967;48.876;2.136;2023-06-14T08:03:33;15.32;;;5.82;;
61085;SDS011;46967;48.876;2.136;2023-06-14T08:05:58;12.60;;;5.82;;
61085;SDS011;46967;48.876;2.136;2023-06-14T08:08:24;11.38;;;5.20;;
61085;SDS011;46967;48.876;2.136;2023-06-14T08:10:49;9.30;;;5.38;;
61085;SDS011;46967;48.876;2.136;2023-06-14T08:13:15;14.60;;;5.38;;
61085;SDS011;46967;48.876;2.136;2023-06-14T08:15:40;14.35;;;6.20;;
61085;SDS011;46967;48.876;2.136;2023-06-14T08:18:05;10.88;;;5.70;;
61085;SDS011;46967;48.876;2.136;2023-06-14T08:20:31;9.20;;;4.90;;
61085;SDS011;46967;48.876;2.136;2023-06-14T08:22:57;12.25;;;5.20;;
61085;SDS011;46967;48.876;2.136;2023-06-14T08:25:23;12.10;;;5.45;;
61085;SDS011;46967;48.876;2.136;2023-06-14T08:27:48;12.32;;;5.07;;
61085;SDS011;46967;48.876;2.136;2023-06-14T08:30:15;13.50;;;5.15;;
61085;SDS011;46967;48.876;2.136;2023-06-14T08:32:42;12.57;;;5.05;;
61085;SDS011;46967;48.876;2.136;2023-06-14T08:35:07;12.70;;;4.75;;
61085;SDS011;46967;48.876;2.136;2023-06-14T08:37:33;11.02;;;4.55;;
61085;SDS011;46967;48.876;2.136;2023-06-14T08:40:03;13.45;;;4.85;;
61085;SDS011;46967;48.876;2.136;2023-06-14T08:42:31;11.45;;;5.20;;
61085;SDS011;46967;48.876;2.136;2023-06-14T08:44:58;10.60;;;4.60;;
61085;SDS011;46967;48.876;2.136;2023-06-14T08:47:25;9.15;;;4.45;;
61085;SDS011;46967;48.876;2.136;2023-06-14T08:49:51;17.08;;;4.53;;
61085;SDS011;46967;48.876;2.136;2023-06-14T08:52:20;9.50;;;4.53;;
61085;SDS011;46967;48.876;2.136;2023-06-14T08:54:46;8.75;;;4.82;;
61085;SDS011;46967;48.876;2.136;2023-06-14T08:57:13;9.75;;;4.45;;
61085;SDS011;46967;48.876;2.136;2023-06-14T08:59:40;8.85;;;4.32;;
61085;SDS011;46967;48.876;2.136;2023-06-14T09:02:11;9.57;;;4.30;;
61085;SDS011;46967;48.876;2.136;2023-06-14T09:04:39;9.32;;;4.07;;
61085;SDS011;46967;48.876;2.136;2023-06-14T09:07:05;10.77;;;4.10;;
61085;SDS011;46967;48.876;2.136;2023-06-14T09:09:31;10.38;;;4.30;;
61085;SDS011;46967;48.876;2.136;2023-06-14T09:11:57;11.23;;;4.05;;
61085;SDS011;46967;48.876;2.136;2023-06-14T09:14:23;6.65;;;3.90;;
61085;SDS011;46967;48.876;2.136;2023-06-14T09:16:53;8.60;;;3.95;;
61085;SDS011;46967;48.876;2.136;2023-06-14T09:19:25;9.57;;;4.15;;
61085;SDS011;46967;48.876;2.136;2023-06-14T09:21:50;8.55;;;4.00;;
61085;SDS011;46967;48.876;2.136;2023-06-14T09:24:17;11.27;;;4.05;;
61085;SDS011;46967;48.876;2.136;2023-06-14T09:26:44;13.27;;;4.22;;
61085;SDS011;46967;48.876;2.136;2023-06-14T09:29:12;9.13;;;4.20;;
61085;SDS011;46967;48.876;2.136;2023-06-14T09:31:37;11.13;;;3.78;;
61085;SDS011;46967;48.876;2.136;2023-06-14T09:34:03;6.15;;;4.07;;
61085;SDS011;46967;48.876;2.136;2023-06-14T09:36:30;12.95;;;4.20;;
61085;SDS011;46967;48.876;2.136;2023-06-14T09:38:57;7.57;;;3.77;;
61085;SDS011;46967;48.876;2.136;2023-06-14T09:41:40;5.93;;;3.53;;
61085;SDS011;46967;48.876;2.136;2023-06-14T09:44:07;5.95;;;3.42;;
61085;SDS011;46967;48.876;2.136;2023-06-14T09:46:33;5.60;;;3.13;;
61085;SDS011;46967;48.876;2.136;2023-06-14T09:49:00;7.55;;;2.90;;
61085;SDS011;46967;48.876;2.136;2023-06-14T09:51:27;12.10;;;3.67;;
61085;SDS011;46967;48.876;2.136;2023-06-14T09:53:53;6.80;;;3.60;;
61085;SDS011;46967;48.876;2.136;2023-06-14T09:56:26;8.75;;;3.50;;
61085;SDS011;46967;48.876;2.136;2023-06-14T09:58:55;6.32;;;3.60;;
61085;SDS011;46967;48.876;2.136;2023-06-14T10:01:22;10.65;;;3.28;;
61085;SDS011;46967;48.876;2.136;2023-06-14T10:03:50;7.50;;;3.40;;
61085;SDS011;46967;48.876;2.136;2023-06-14T10:06:24;8.57;;;3.35;;
61085;SDS011;46967;48.876;2.136;2023-06-14T10:08:52;6.55;;;3.20;;
61085;SDS011;46967;48.876;2.136;2023-06-14T10:11:21;10.27;;;3.42;;
61085;SDS011;46967;48.876;2.136;2023-06-14T10:13:46;7.57;;;3.60;;
61085;SDS011;46967;48.876;2.136;2023-06-14T10:16:15;9.60;;;3.17;;
61085;SDS011;46967;48.876;2.136;2023-06-14T10:24:27;10.63;;;3.38;;
61085;SDS011;46967;48.876;2.136;2023-06-14T10:26:57;4.38;;;3.35;;
61085;SDS011;46967;48.876;2.136;2023-06-14T10:29:24;5.80;;;3.17;;
61085;SDS011;46967;48.876;2.136;2023-06-14T10:31:50;6.25;;;3.40;;
61085;SDS011;46967;48.876;2.136;2023-06-14T10:34:25;7.00;;;3.45;;
61085;SDS011;46967;48.876;2.136;2023-06-14T10:37:05;3.90;;;3.10;;
61085;SDS011;46967;48.876;2.136;2023-06-14T10:39:38;7.43;;;3.03;;
61085;SDS011;46967;48.876;2.136;2023-06-14T10:42:14;5.60;;;3.15;;
61085;SDS011;46967;48.876;2.136;2023-06-14T10:44:50;5.32;;;2.88;;
61085;SDS011;46967;48.876;2.136;2023-06-14T10:50:07;4.85;;;3.25;;
61085;SDS011;46967;48.876;2.136;2023-06-14T10:52:38;6.13;;;3.13;;
61085;SDS011;46967;48.876;2.136;2023-06-14T10:57:36;6.35;;;3.40;;
61085;SDS011;46967;48.876;2.136;2023-06-14T11:00:06;9.13;;;3.50;;
61085;SDS011;46967;48.876;2.136;2023-06-14T11:02:51;3.47;;;2.85;;
61085;SDS011;46967;48.876;2.136;2023-06-14T11:05:52;7.55;;;3.38;;
61085;SDS011;46967;48.876;2.136;2023-06-14T11:11:12;6.78;;;3.20;;
61085;SDS011;46967;48.876;2.136;2023-06-14T11:13:38;8.00;;;3.00;;
61085;SDS011;46967;48.876;2.136;2023-06-14T11:16:12;7.78;;;3.08;;
61085;SDS011;46967;48.876;2.136;2023-06-14T11:18:38;9.57;;;3.42;;
61085;SDS011;46967;48.876;2.136;2023-06-14T11:21:03;7.38;;;3.50;;
61085;SDS011;46967;48.876;2.136;2023-06-14T11:23:29;8.25;;;3.47;;
61085;SDS011;46967;48.876;2.136;2023-06-14T11:25:54;7.95;;;3.30;;
61085;SDS011;46967;48.876;2.136;2023-06-14T11:28:20;6.80;;;3.00;;
61085;SDS011;46967;48.876;2.136;2023-06-14T11:30:46;5.15;;;3.50;;
61085;SDS011;46967;48.876;2.136;2023-06-14T11:33:16;4.72;;;3.20;;
61085;SDS011;46967;48.876;2.136;2023-06-14T11:35:47;5.10;;;3.20;;
61085;SDS011;46967;48.876;2.136;2023-06-14T11:38:13;6.68;;;3.35;;
61085;SDS011;46967;48.876;2.136;2023-06-14T11:40:38;3.58;;;3.25;;
61085;SDS011;46967;48.876;2.136;2023-06-14T11:43:04;6.57;;;3.63;;
61085;SDS011;46967;48.876;2.136;2023-06-14T11:45:30;4.63;;;3.30;;
61085;SDS011;46967;48.876;2.136;2023-06-14T11:47:56;6.35;;;3.50;;
61085;SDS011;46967;48.876;2.136;2023-06-14T11:50:23;6.93;;;3.15;;
61085;SDS011;46967;48.876;2.136;2023-06-14T11:52:52;10.13;;;3.65;;
61085;SDS011;46967;48.876;2.136;2023-06-14T11:55:22;6.72;;;3.50;;
61085;SDS011;46967;48.876;2.136;2023-06-14T11:57:48;6.53;;;3.28;;
61085;SDS011;46967;48.876;2.136;2023-06-14T12:00:14;6.97;;;3.20;;
61085;SDS011;46967;48.876;2.136;2023-06-14T12:02:40;4.20;;;2.90;;
61085;SDS011;46967;48.876;2.136;2023-06-14T12:05:07;7.13;;;3.50;;
61085;SDS011;46967;48.876;2.136;2023-06-14T12:07:35;6.85;;;3.40;;
61085;SDS011;46967;48.876;2.136;2023-06-14T12:12:28;5.65;;;3.00;;
61085;SDS011;46967;48.876;2.136;2023-06-14T12:14:55;4.03;;;3.15;;
61085;SDS011;46967;48.876;2.136;2023-06-14T12:17:24;7.18;;;3.17;;
61085;SDS011;46967;48.876;2.136;2023-06-14T12:19:50;5.18;;;2.97;;
61085;SDS011;46967;48.876;2.136;2023-06-14T12:22:16;10.23;;;3.58;;
61085;SDS011;46967;48.876;2.136;2023-06-14T12:24:45;7.05;;;3.55;;
61085;SDS011;46967;48.876;2.136;2023-06-14T12:27:11;5.82;;;3.42;;
61085;SDS011;46967;48.876;2.136;2023-06-14T12:29:40;5.10;;;3.30;;
61085;SDS011;46967;48.876;2.136;2023-06-14T12:32:08;7.63;;;3.30;;
61085;SDS011;46967;48.876;2.136;2023-06-14T12:34:34;4.72;;;3.08;;
61085;SDS011;46967;48.876;2.136;2023-06-14T12:37:00;5.60;;;3.00;;
61085;SDS011;46967;48.876;2.136;2023-06-14T12:39:26;5.90;;;3.13;;
61085;SDS011;46967;48.876;2.136;2023-06-14T12:41:51;6.07;;;3.20;;
61085;SDS011;46967;48.876;2.136;2023-06-14T12:44:17;5.85;;;3.20;;
61085;SDS011;46967;48.876;2.136;2023-06-14T12:46:42;7.47;;;3.60;;
61085;SDS011;46967;48.876;2.136;2023-06-14T12:49:11;6.18;;;2.90;;
61085;SDS011;46967;48.876;2.136;2023-06-14T12:54:03;7.38;;;3.50;;
61085;SDS011;46967;48.876;2.136;2023-06-14T12:56:28;4.25;;;3.20;;
61085;SDS011;46967;48.876;2.136;2023-06-14T12:58:54;4.00;;;3.10;;
61085;SDS011;46967;48.876;2.136;2023-06-14T13:01:19;8.07;;;3.45;;
61085;SDS011;46967;48.876;2.136;2023-06-14T13:03:46;6.43;;;3.22;;
61085;SDS011;46967;48.876;2.136;2023-06-14T13:06:12;5.85;;;3.33;;
61085;SDS011;46967;48.876;2.136;2023-06-14T13:08:37;7.68;;;3.60;;
61085;SDS011;46967;48.876;2.136;2023-06-14T13:11:03;10.77;;;3.40;;
61085;SDS011;46967;48.876;2.136;2023-06-14T13:13:28;5.63;;;3.50;;
61085;SDS011;46967;48.876;2.136;2023-06-14T13:15:53;9.48;;;3.88;;
61085;SDS011;46967;48.876;2.136;2023-06-14T13:18:19;4.78;;;3.30;;
61085;SDS011;46967;48.876;2.136;2023-06-14T13:20:45;7.47;;;3.42;;
61085;SDS011;46967;48.876;2.136;2023-06-14T13:23:11;5.70;;;3.30;;
61085;SDS011;46967;48.876;2.136;2023-06-14T13:25:37;3.60;;;3.15;;
61085;SDS011;46967;48.876;2.136;2023-06-14T13:28:03;5.85;;;3.30;;
61085;SDS011;46967;48.876;2.136;2023-06-14T13:30:29;6.63;;;3.40;;
61085;SDS011;46967;48.876;2.136;2023-06-14T13:32:55;5.03;;;3.20;;
61085;SDS011;46967;48.876;2.136;2023-06-14T13:35:21;8.30;;;3.20;;
61085;SDS011;46967;48.876;2.136;2023-06-14T13:37:47;4.35;;;3.20;;
61085;SDS011;46967;48.876;2.136;2023-06-14T13:40:13;5.18;;;2.85;;
61085;SDS011;46967;48.876;2.136;2023-06-14T13:42:38;7.45;;;2.83;;
61085;SDS011;46967;48.876;2.136;2023-06-14T13:45:04;7.03;;;3.50;;
61085;SDS011;46967;48.876;2.136;2023-06-14T13:47:30;6.75;;;3.38;;
61085;SDS011;46967;48.876;2.136;2023-06-14T13:49:56;4.78;;;3.10;;
61085;SDS011;46967;48.876;2.136;2023-06-14T13:52:21;9.25;;;3.30;;
61085;SDS011;46967;48.876;2.136;2023-06-14T13:54:47;10.13;;;3.40;;
61085;SDS011;46967;48.876;2.136;2023-06-14T13:57:13;4.93;;;3.05;;
61085;SDS011;46967;48.876;2.136;2023-06-14T13:59:39;5.18;;;3.13;;
61085;SDS011;46967;48.876;2.136;2023-06-14T14:02:05;3.28;;;2.92;;
61085;SDS011;46967;48.876;2.136;2023-06-14T14:04:31;4.00;;;2.92;;
61085;SDS011;46967;48.876;2.136;2023-06-14T14:06:58;6.30;;;3.05;;
61085;SDS011;46967;48.876;2.136;2023-06-14T14:09:23;5.05;;;3.35;;
61085;SDS011;46967;48.876;2.136;2023-06-14T14:11:48;6.82;;;3.20;;
61085;SDS011;46967;48.876;2.136;2023-06-14T14:14:14;7.68;;;3.28;;
61085;SDS011;46967;48.876;2.136;2023-06-14T14:16:39;5.10;;;2.97;;
61085;SDS011;46967;48.876;2.136;2023-06-14T14:19:05;8.40;;;3.45;;
61085;SDS011;46967;48.876;2.136;2023-06-14T14:21:31;6.28;;;2.92;;
61085;SDS011;46967;48.876;2.136;2023-06-14T14:23:57;7.75;;;3.03;;
61085;SDS011;46967;48.876;2.136;2023-06-14T14:26:23;4.72;;;2.90;;
61085;SDS011;46967;48.876;2.136;2023-06-14T14:28:50;6.35;;;3.38;;
61085;SDS011;46967;48.876;2.136;2023-06-14T14:31:15;4.78;;;3.22;;
61085;SDS011;46967;48.876;2.136;2023-06-14T14:33:41;4.07;;;2.72;;
61085;SDS011;46967;48.876;2.136;2023-06-14T14:36:06;8.73;;;3.33;;
61085;SDS011;46967;48.876;2.136;2023-06-14T14:38:32;5.30;;;2.97;;
61085;SDS011;46967;48.876;2.136;2023-06-14T14:40:57;5.70;;;3.03;;
61085;SDS011;46967;48.876;2.136;2023-06-14T14:43:23;6.00;;;3.10;;
61085;SDS011;46967;48.876;2.136;2023-06-14T14:45:48;5.45;;;2.88;;
61085;SDS011;46967;48.876;2.136;2023-06-14T14:48:13;3.87;;;3.10;;
61085;SDS011;46967;48.876;2.136;2023-06-14T14:50:39;8.25;;;3.28;;
61085;SDS011;46967;48.876;2.136;2023-06-14T14:53:05;8.63;;;3.65;;
61085;SDS011;46967;48.876;2.136;2023-06-14T14:55:30;6.07;;;3.20;;
61085;SDS011;46967;48.876;2.136;2023-06-14T14:57:57;5.45;;;3.25;;
61085;SDS011;46967;48.876;2.136;2023-06-14T15:00:22;6.57;;;2.95;;